Time;durP1;ratioP1;P1;durP2;ratioP2;P2;SDS_P1;SDS_P2;PMS_P1;PMS_P2;Temp;Humidity;BMP_temperature;BMP_pressure;BME280_temperature;BME280_humidity;BME280_pressure;Samples;Min_cycle;Max_cycle;Signal;HPM_P1;HPM_P2
2021/04/15 00:01:28;;;;;;;1.27;0.35;;;;;;;1.37;76.42;103027.84;4898572;29;20044;-78
2021/04/15 00:03:54;;;;;;;;;;;;;;;1.26;76.53;103024.94;4895307;29;20096;-78
2021/04/15 00:06:25;;;;;;;0.70;0.40;;;;;;;1.29;76.70;103027.44;4883905;29;20039;-78
2021/04/15 00:08:52;;;;;;;1.85;0.50;;;;;;;1.30;76.42;103029.13;4901489;29;20217;-78
2021/04/15 00:11:20;;;;;;;2.40;0.35;;;;;;;1.31;76.44;103025.53;4899258;29;20111;-78
2021/04/15 00:13:51;;;;;;;0.65;0.40;;;;;;;1.31;76.39;103025.53;4884208;29;20331;-77
2021/04/15 00:16:18;;;;;;;1.83;0.50;;;;;;;1.33;76.43;103028.13;4892225;29;20029;-78
2021/04/15 00:18:44;;;;;;;2.13;0.30;;;;;;;1.33;76.77;103022.81;4899303;29;20060;-78
2021/04/15 00:21:11;;;;;;;1.13;0.30;;;;;;;1.33;76.69;103023.66;4900817;29;20083;-77
2021/04/15 00:23:38;;;;;;;1.45;0.50;;;;;;;1.29;76.68;103019.47;4880809;29;20447;-78
2021/04/15 00:26:07;;;;;;;0.77;0.38;;;;;;;1.29;76.71;103024.78;4891742;29;20056;-78
2021/04/15 00:28:33;;;;;;;1.90;0.40;;;;;;;1.27;76.77;103021.34;4900869;29;20032;-78
2021/04/15 00:30:59;;;;;;;0.70;0.40;;;;;;;1.27;76.58;103024.00;4895901;29;20088;-78
2021/04/15 00:33:24;;;;;;;0.80;0.40;;;;;;;1.27;76.59;103026.66;4895779;29;20355;-78
2021/04/15 00:35:51;;;;;;;2.15;0.60;;;;;;;1.14;76.63;103002.59;4900858;29;20040;-78
2021/04/15 00:38:19;;;;;;;1.73;0.40;;;;;;;1.24;76.83;103029.47;4898481;29;20040;-77
2021/04/15 00:40:47;;;;;;;2.90;0.50;;;;;;;1.23;76.86;103022.47;4898614;29;20036;-78
2021/04/15 00:43:13;;;;;;;1.10;0.60;;;;;;;1.23;76.53;103019.81;4883301;29;20037;-77
2021/04/15 00:45:43;;;;;;;1.30;0.50;;;;;;;1.22;76.71;103027.81;4901474;29;20126;-78
2021/04/15 00:48:32;;;;;;;1.58;0.38;;;;;;;1.14;76.87;103037.06;4886604;29;20371;-78
2021/04/15 00:51:09;;;;;;;0.80;0.60;;;;;;;1.12;76.82;103030.13;4884267;29;20024;-78
2021/04/15 00:53:48;;;;;;;0.88;0.50;;;;;;;1.13;76.86;103031.84;4900164;29;20028;-78
2021/04/15 00:56:14;;;;;;;1.73;0.60;;;;;;;1.13;76.74;103023.91;4899916;29;20028;-78
2021/04/15 00:58:40;;;;;;;2.92;0.50;;;;;;;1.11;77.05;103018.66;4898988;29;20032;-78
2021/04/15 01:01:09;;;;;;;2.03;0.77;;;;;;;1.14;76.85;103033.56;4883881;29;20044;-77
2021/04/15 01:03:36;;;;;;;0.88;0.40;;;;;;;1.13;76.42;103024.75;4883210;29;20025;-78
2021/04/15 01:06:04;;;;;;;2.10;0.60;;;;;;;1.12;76.65;103027.47;4882964;29;20115;-78
2021/04/15 01:08:31;;;;;;;2.25;0.60;;;;;;;1.01;76.67;103003.34;4884108;29;20123;-78
2021/04/15 01:11:05;;;;;;;1.30;0.50;;;;;;;1.11;76.57;103031.06;4883610;29;20427;-78
2021/04/15 01:14:00;;;;;;;0.68;0.43;;;;;;;1.03;76.68;103028.84;4884253;29;20495;-78
2021/04/15 01:16:45;;;;;;;1.58;0.50;;;;;;;1.03;76.89;103025.34;4881615;29;20505;-78
2021/04/15 01:19:20;;;;;;;1.90;0.50;;;;;;;1.03;76.70;103030.63;4895796;29;20359;-78
2021/04/15 01:22:15;;;;;;;1.10;0.50;;;;;;;1.01;76.57;103024.56;4900022;29;20428;-78
2021/04/15 01:25:12;;;;;;;2.30;0.40;;;;;;;0.95;76.50;103028.38;4885838;29;20079;-77
2021/04/15 01:27:41;;;;;;;2.00;0.50;;;;;;;0.91;77.05;103019.72;4900289;29;20024;-78
2021/04/15 01:30:09;;;;;;;1.63;0.40;;;;;;;0.97;76.74;103028.31;4900561;29;20077;-78
2021/04/15 01:32:51;;;;;;;1.63;0.32;;;;;;;0.93;76.83;103032.91;4905143;29;20036;-78
2021/04/15 01:35:42;;;;;;;1.48;0.50;;;;;;;0.91;76.75;103027.69;4903927;29;20116;-78
2021/04/15 01:38:19;;;;;;;1.77;0.60;;;;;;;0.91;76.83;103029.47;4899207;29;20368;-78
2021/04/15 01:41:39;;;;;;;1.98;0.50;;;;;;;0.86;76.79;103032.38;4883718;29;20185;-78
2021/04/15 01:44:15;;;;;;;1.48;0.60;;;;;;;0.88;77.00;103034.94;4872850;29;20052;-78
2021/04/15 01:46:43;;;;;;;2.10;0.60;;;;;;;0.70;77.16;103011.13;4878681;29;20064;-78
2021/04/15 01:49:12;;;;;;;1.80;0.60;;;;;;;0.84;77.03;103039.56;4878820;29;20025;-78
2021/04/15 01:51:48;;;;;;;1.20;0.80;;;;;;;0.81;77.36;103039.72;4880512;29;20033;-78
2021/04/15 01:54:35;;;;;;;1.88;0.68;;;;;;;0.64;77.03;103010.59;4879092;29;20021;-78
2021/04/15 01:57:30;;;;;;;0.80;0.45;;;;;;;0.77;77.32;103037.31;4880536;29;20112;-78
2021/04/15 02:00:21;;;;;;;1.95;0.63;;;;;;;0.68;77.23;103022.75;4863456;29;20029;-78
2021/04/15 02:02:56;;;;;;;1.40;0.57;;;;;;;0.69;77.05;103025.28;4864017;29;20029;-78
2021/04/15 02:05:26;;;;;;;1.40;0.50;;;;;;;0.69;77.15;103027.94;4878746;29;20028;-78
2021/04/15 02:07:57;;;;;;;1.15;0.60;;;;;;;0.76;77.23;103054.97;4863862;29;20045;-78
2021/04/15 02:10:24;;;;;;;0.80;0.50;;;;;;;0.74;77.58;103054.22;4879459;29;20113;-78
2021/04/15 02:12:53;;;;;;;0.70;0.52;;;;;;;0.52;77.39;103019.19;4862054;29;20105;-78
2021/04/15 02:15:30;;;;;;;0.85;0.40;;;;;;;0.68;77.49;103052.75;4879723;29;20070;-78
2021/04/15 02:18:06;;;;;;;1.17;0.70;;;;;;;0.68;77.21;103058.03;4877015;29;20064;-78
2021/04/15 02:20:32;;;;;;;3.72;0.68;;;;;;;0.71;77.66;103054.38;4878138;29;20093;-78
2021/04/15 02:22:58;;;;;;;1.67;0.50;;;;;;;0.67;77.92;103053.69;4863016;29;20029;-78
2021/04/15 02:25:31;;;;;;;2.85;0.60;;;;;;;0.66;77.79;103053.75;4891368;29;20514;-78
2021/04/15 02:28:18;;;;;;;1.00;0.50;;;;;;;0.64;77.75;103053.00;4874467;29;20032;-78
2021/04/15 02:30:53;;;;;;;1.90;0.70;;;;;;;0.62;77.98;103049.56;4882959;29;20029;-78
2021/04/15 02:33:28;;;;;;;2.70;0.77;;;;;;;0.59;77.52;103044.41;4863121;29;20060;-78
2021/04/15 02:36:00;;;;;;;1.50;0.60;;;;;;;0.64;77.90;103053.00;4863081;29;20037;-78
2021/04/15 02:38:33;;;;;;;1.10;0.60;;;;;;;0.66;78.08;103056.41;4862794;29;20056;-78
2021/04/15 02:41:01;;;;;;;2.95;0.70;;;;;;;0.70;77.96;103050.03;4863210;29;20115;-77
2021/04/15 02:43:52;;;;;;;2.10;0.52;;;;;;;0.70;78.13;103050.88;4863213;29;20399;-78
2021/04/15 02:46:35;;;;;;;1.55;0.70;;;;;;;0.69;77.99;103040.34;4895052;29;20048;-78
2021/04/15 02:49:05;;;;;;;2.13;0.80;;;;;;;0.66;78.21;103037.84;4915984;29;20028;-78
2021/04/15 02:51:37;;;;;;;2.13;0.80;;;;;;;0.83;78.17;103055.53;4900125;29;20587;-77
2021/04/15 02:54:09;;;;;;;1.33;0.63;;;;;;;0.85;78.16;103054.50;4899922;29;20459;-78
2021/04/15 02:56:49;;;;;;;1.48;0.70;;;;;;;0.84;78.43;103066.06;4926790;29;20083;-78
2021/04/15 02:59:24;;;;;;;1.92;0.60;;;;;;;0.70;78.56;103039.44;4918798;29;20028;-78
2021/04/15 03:01:55;;;;;;;1.90;0.65;;;;;;;0.58;78.33;103022.38;4921343;29;20031;-77
2021/04/15 03:04:22;;;;;;;1.20;0.60;;;;;;;0.81;78.53;103063.56;4917209;29;20020;-78
2021/04/15 03:06:52;;;;;;;1.05;0.60;;;;;;;0.79;78.64;103073.38;4899167;29;20024;-78
2021/04/15 03:09:20;;;;;;;1.38;0.70;;;;;;;0.76;79.06;103070.03;4899952;29;20482;-77
2021/04/15 03:12:09;;;;;;;1.92;0.60;;;;;;;0.75;78.67;103077.13;4917908;29;20093;-78
2021/04/15 03:15:05;;;;;;;1.35;0.50;;;;;;;0.59;78.85;103060.31;4906466;29;20111;-78
2021/04/15 03:17:36;;;;;;;1.48;0.55;;;;;;;0.66;78.80;103073.19;4914909;29;20040;-77
2021/04/15 03:20:09;;;;;;;0.85;0.50;;;;;;;0.63;78.86;103067.16;4909097;29;20039;-78
2021/04/15 03:23:04;;;;;;;1.45;0.60;;;;;;;0.51;79.11;103036.00;4916997;29;20087;-77
2021/04/15 03:25:30;;;;;;;1.90;0.60;;;;;;;0.64;79.27;103060.94;4899805;29;20062;-78
2021/04/15 03:28:07;;;;;;;1.85;0.70;;;;;;;0.65;79.27;103065.28;4916948;29;20518;-78
2021/04/15 03:30:57;;;;;;;2.42;0.50;;;;;;;0.73;79.21;103079.03;4899640;29;20020;-78
2021/04/15 03:33:46;;;;;;;1.98;0.50;;;;;;;0.75;79.03;103077.13;4915761;29;20025;-78
2021/04/15 03:36:20;;;;;;;1.15;0.57;;;;;;;0.62;79.41;103058.34;4899686;29;20127;-77
2021/04/15 03:38:56;;;;;;;1.77;0.60;;;;;;;0.66;79.17;103072.28;4899313;29;20459;-78
2021/04/15 03:41:38;;;;;;;1.80;0.57;;;;;;;0.60;78.97;103072.63;4920709;29;20402;-77
2021/04/15 03:44:09;;;;;;;1.08;0.60;;;;;;;0.65;79.13;103081.19;4919302;29;20028;-78
2021/04/15 03:46:42;;;;;;;1.45;0.45;;;;;;;0.67;79.24;103079.34;4901722;29;20115;-78
2021/04/15 03:49:19;;;;;;;1.70;0.70;;;;;;;0.61;79.40;103075.19;4919076;29;20028;-78
2021/04/15 03:51:49;;;;;;;2.53;0.60;;;;;;;0.65;79.56;103082.03;4920256;29;20062;-77
2021/04/15 03:54:20;;;;;;;3.95;0.60;;;;;;;0.55;79.23;103070.19;4919944;29;20130;-78
2021/04/15 03:56:50;;;;;;;1.45;0.70;;;;;;;0.48;79.69;103060.88;4919058;29;20030;-78
2021/04/15 04:00:02;;;;;;;1.45;0.50;;;;;;;0.42;79.39;103055.88;4917712;29;20028;-78
2021/04/15 04:02:35;;;;;;;1.52;0.70;;;;;;;0.59;79.54;103086.78;4885316;29;20040;-78
2021/04/15 04:05:26;;;;;;;2.72;0.85;;;;;;;0.61;79.33;103092.88;4883760;29;20443;-78
2021/04/15 04:07:59;;;;;;;1.00;0.60;;;;;;;0.50;79.00;103068.72;4909230;29;20130;-78
2021/04/15 04:10:32;;;;;;;1.40;0.57;;;;;;;0.62;79.10;103090.16;4919999;29;20032;-77
2021/04/15 04:13:23;;;;;;;1.73;0.57;;;;;;;0.62;79.01;103089.28;4890993;29;20028;-77
2021/04/15 04:15:53;;;;;;;1.33;0.63;;;;;;;0.61;78.88;103091.09;4917552;29;20024;-77
2021/04/15 04:18:26;;;;;;;4.20;0.85;;;;;;;0.72;78.80;103093.19;4917028;29;20378;-77
2021/04/15 04:21:05;;;;;;;3.13;0.90;;;;;;;0.90;78.07;103062.25;4887848;29;20464;-77
2021/04/15 04:23:47;;;;;;;2.88;0.65;;;;;;;1.59;76.77;103088.56;4902301;29;20024;-78
2021/04/15 04:26:19;;;;;;;4.80;0.60;;;;;;;2.04;75.59;103096.69;4919681;29;20125;-77
2021/04/15 04:29:13;;;;;;;4.05;0.70;;;;;;;2.42;74.99;103106.88;4902868;29;20458;-77
2021/04/15 04:31:43;;;;;;;3.15;0.70;;;;;;;2.63;73.09;103108.31;4917927;29;20031;-78
2021/04/15 04:34:09;;;;;;;2.33;0.50;;;;;;;2.94;71.89;103104.66;4917767;29;20024;-77
2021/04/15 04:36:36;;;;;;;2.55;0.82;;;;;;;3.21;71.05;103104.78;4903179;29;20099;-77
2021/04/15 04:39:06;;;;;;;1.35;0.80;;;;;;;3.46;69.45;103121.88;4914418;29;20032;-77
2021/04/15 04:42:02;;;;;;;3.45;1.00;;;;;;;3.65;68.81;103117.13;4897834;29;20039;-77
2021/04/15 04:44:50;;;;;;;2.15;0.90;;;;;;;3.91;68.20;103118.13;4900110;29;20035;-77
2021/04/15 04:47:23;;;;;;;2.55;0.90;;;;;;;4.30;67.49;103110.28;4914448;29;20119;-77
2021/04/15 04:49:56;;;;;;;1.00;0.70;;;;;;;4.64;66.45;103108.91;4917053;29;20039;-77
2021/04/15 04:52:26;;;;;;;1.52;0.80;;;;;;;4.91;65.46;103115.00;4918248;29;20100;-77
2021/04/15 04:54:54;;;;;;;3.03;0.90;;;;;;;5.26;64.15;103114.38;4913028;29;20024;-77
2021/04/15 04:57:35;;;;;;;2.85;0.80;;;;;;;5.48;63.40;103102.19;4913711;29;20024;-78
2021/04/15 05:00:07;;;;;;;2.03;0.80;;;;;;;5.72;63.23;103123.59;4911263;29;20124;-77
2021/04/15 05:02:34;;;;;;;3.90;0.90;;;;;;;5.85;62.11;103121.75;4913668;29;20035;-77
2021/04/15 05:05:20;;;;;;;2.50;0.70;;;;;;;6.07;61.62;103116.59;4896400;29;20455;-78
2021/04/15 05:07:53;;;;;;;3.17;0.90;;;;;;;6.33;61.26;103127.19;4912157;29;20021;-77
2021/04/15 05:10:23;;;;;;;1.05;0.60;;;;;;;6.59;60.23;103128.75;4897699;29;20060;-78
2021/04/15 05:12:51;;;;;;;5.75;1.90;;;;;;;6.67;59.37;103128.16;4918272;29;20038;-77
2021/04/15 05:15:17;;;;;;;1.50;0.77;;;;;;;6.76;59.38;103134.66;4915814;29;20141;-77
2021/04/15 05:17:45;;;;;;;1.40;0.70;;;;;;;6.78;58.98;103108.59;4915450;29;20234;-78
2021/04/15 05:20:18;;;;;;;1.90;0.80;;;;;;;6.62;58.13;103126.78;4901735;29;20103;-78
2021/04/15 05:23:21;;;;;;;1.27;0.70;;;;;;;6.57;58.13;103127.16;4899330;29;20347;-78
2021/04/15 05:26:24;;;;;;;1.88;0.68;;;;;;;6.92;57.29;103140.53;4908208;29;20060;-79
2021/04/15 05:28:53;;;;;;;4.18;0.70;;;;;;;6.71;58.19;103142.16;4897988;29;20058;-77
2021/04/15 05:31:22;;;;;;;3.05;0.80;;;;;;;5.80;59.19;103130.13;4911132;29;20391;-77
2021/04/15 05:33:50;;;;;;;2.10;0.73;;;;;;;4.75;61.48;103145.50;4911709;29;20585;-77
2021/04/15 05:36:37;;;;;;;4.10;1.13;;;;;;;3.65;64.00;103150.88;4915112;29;20467;-77
2021/04/15 05:39:08;;;;;;;2.10;0.80;;;;;;;3.28;66.54;103156.69;4911599;29;20038;-77
2021/04/15 05:41:58;;;;;;;3.05;0.80;;;;;;;3.19;66.54;103153.72;4916255;29;20050;-77
2021/04/15 05:44:44;;;;;;;2.58;0.60;;;;;;;3.15;66.25;103158.38;4896613;29;20645;-78
2021/04/15 05:47:16;;;;;;;1.67;0.70;;;;;;;3.23;67.69;103163.22;4913908;29;20051;-77
2021/04/15 05:49:52;;;;;;;1.85;0.80;;;;;;;3.22;67.29;103162.38;4899902;29;20039;-78
2021/04/15 05:52:23;;;;;;;2.08;0.68;;;;;;;3.04;66.87;103164.31;4897348;29;20084;-78
2021/04/15 05:54:52;;;;;;;2.88;0.52;;;;;;;3.04;67.41;103168.78;4912174;29;20047;-78
2021/04/15 05:57:26;;;;;;;1.42;0.50;;;;;;;2.94;66.95;103138.38;4911104;29;21213;-77
2021/04/15 06:00:15;;;;;;;1.07;0.53;;;;;;;3.21;66.51;103171.31;4898358;29;20032;-77
2021/04/15 06:02:52;;;;;;;4.45;0.60;;;;;;;3.33;66.55;103169.69;4908462;29;20310;-77
2021/04/15 06:05:29;;;;;;;0.82;0.52;;;;;;;3.47;66.70;103161.72;4911453;29;20034;-78
2021/04/15 06:07:59;;;;;;;2.22;0.70;;;;;;;3.48;66.83;103157.25;4911259;29;20118;-78
2021/04/15 06:10:28;;;;;;;5.22;0.75;;;;;;;3.58;66.32;103173.53;4915366;29;20028;-77
2021/04/15 06:13:05;;;;;;;4.20;0.90;;;;;;;3.47;66.14;103164.38;4916972;29;20085;-77
2021/04/15 06:15:52;;;;;;;3.17;0.80;;;;;;;3.61;66.01;103170.63;4911167;29;20454;-78
2021/04/15 06:18:39;;;;;;;4.53;0.70;;;;;;;3.68;65.00;103180.84;4911253;29;20472;-77
2021/04/15 06:21:26;;;;;;;3.67;1.10;;;;;;;3.60;64.81;103167.13;4911065;29;20048;-78
2021/04/15 06:24:00;;;;;;;1.60;0.63;;;;;;;3.68;64.63;103178.19;4913015;29;20325;-77
2021/04/15 06:26:34;;;;;;;3.58;0.70;;;;;;;3.55;64.97;103137.28;4912727;29;20032;-77
2021/04/15 06:29:17;;;;;;;3.22;0.75;;;;;;;3.84;63.94;103171.88;4899383;29;20024;-78
2021/04/15 06:31:48;;;;;;;2.90;0.70;;;;;;;4.09;64.34;103176.50;4913888;29;20027;-77
2021/04/15 06:34:14;;;;;;;3.15;0.73;;;;;;;4.39;64.49;103182.50;4915314;29;20162;-77
2021/04/15 06:36:40;;;;;;;1.70;0.60;;;;;;;4.44;63.54;103190.22;4916444;29;20124;-77
2021/04/15 06:39:21;;;;;;;1.63;0.80;;;;;;;4.57;64.69;103190.25;4913222;29;20020;-78
2021/04/15 06:42:04;;;;;;;1.55;0.70;;;;;;;4.70;64.54;103192.03;4910731;29;20047;-77
2021/04/15 06:45:07;;;;;;;3.80;1.05;;;;;;;4.56;64.07;103197.38;4897499;29;20043;-78
2021/04/15 06:47:48;;;;;;;2.72;0.70;;;;;;;4.69;64.23;103189.44;4909824;29;20078;-78
2021/04/15 06:50:28;;;;;;;1.13;0.60;;;;;;;4.82;63.79;103190.31;4914469;29;20074;-78
2021/04/15 06:53:21;;;;;;;4.40;0.95;;;;;;;4.81;63.72;103191.28;4914057;29;20028;-78
2021/04/15 06:56:24;;;;;;;2.45;0.80;;;;;;;4.93;62.72;103181.59;4911412;29;20040;-78
2021/04/15 06:59:22;;;;;;;1.77;0.60;;;;;;;5.02;63.20;103172.97;4901385;29;20020;-78
2021/04/15 07:01:47;;;;;;;1.25;0.70;;;;;;;5.18;62.47;103186.97;4917396;29;20032;-78
2021/04/15 07:04:23;;;;;;;1.77;0.68;;;;;;;5.11;61.74;103187.50;4898390;29;20032;-78
2021/04/15 07:07:11;;;;;;;3.63;0.90;;;;;;;5.11;61.08;103183.03;4912292;29;20821;-78
2021/04/15 07:09:55;;;;;;;5.43;0.60;;;;;;;5.32;60.83;103190.50;4915460;29;20024;-78
2021/04/15 07:12:26;;;;;;;2.17;0.57;;;;;;;5.44;61.26;103186.16;4910128;29;20055;-78
2021/04/15 07:15:33;;;;;;;1.20;0.60;;;;;;;5.48;59.94;103188.47;4912685;29;20043;-78
2021/04/15 07:18:19;;;;;;;1.42;0.88;;;;;;;5.46;61.53;103184.19;4860468;29;20048;-78
2021/04/15 07:21:12;;;;;;;2.13;0.70;;;;;;;5.55;60.91;103168.41;4872112;29;20037;-78
2021/04/15 07:24:17;;;;;;;2.35;0.68;;;;;;;5.71;60.29;103189.53;4908032;29;20032;-78
2021/04/15 07:27:00;;;;;;;1.27;0.70;;;;;;;5.71;60.34;103167.31;4915647;29;20044;-79
2021/04/15 07:29:28;;;;;;;2.03;0.60;;;;;;;5.98;59.75;103188.56;4915173;29;20122;-78
2021/04/15 07:32:07;;;;;;;3.10;0.88;;;;;;;5.82;59.57;103173.59;4900301;29;20035;-78
2021/04/15 07:34:59;;;;;;;1.33;0.60;;;;;;;6.10;59.05;103193.88;4912808;29;20031;-78
2021/04/15 07:37:55;;;;;;;0.95;0.70;;;;;;;6.25;59.81;103193.72;4914309;29;20403;-78
2021/04/15 07:40:33;;;;;;;2.95;0.65;;;;;;;6.32;59.82;103189.63;4899732;29;20024;-79
2021/04/15 07:43:18;;;;;;;2.70;0.70;;;;;;;6.49;58.40;103191.06;4916387;29;20351;-78
2021/04/15 07:46:08;;;;;;;2.22;0.73;;;;;;;6.47;58.23;103191.19;4917388;29;20107;-78
2021/04/15 07:49:05;;;;;;;3.42;0.70;;;;;;;6.61;58.38;103198.19;4909717;29;20024;-78
2021/04/15 07:51:57;;;;;;;2.17;0.80;;;;;;;6.62;57.79;103196.34;4899487;29;20028;-78
2021/04/15 07:54:45;;;;;;;3.63;0.65;;;;;;;6.68;57.34;103201.25;4915810;29;20360;-78
2021/04/15 07:57:48;;;;;;;1.67;0.60;;;;;;;6.79;57.16;103204.00;4917179;29;20340;-78
2021/04/15 08:00:44;;;;;;;2.83;0.60;;;;;;;6.92;56.22;103204.78;4914600;29;20308;-78
2021/04/15 08:03:28;;;;;;;3.03;0.55;;;;;;;7.08;55.30;103215.13;4914589;29;20046;-78
2021/04/15 08:06:31;;;;;;;2.60;0.65;;;;;;;7.25;54.72;103216.53;4915542;29;20473;-79
2021/04/15 08:08:59;;;;;;;1.95;0.60;;;;;;;7.34;55.38;103212.28;4913790;29;20435;-78
2021/04/15 08:11:41;;;;;;;1.83;0.70;;;;;;;7.42;55.63;103216.09;4899393;29;20040;-78
2021/04/15 08:14:43;;;;;;;1.55;0.68;;;;;;;7.43;55.93;103220.47;4913408;29;20485;-78
2021/04/15 08:17:34;;;;;;;1.25;0.50;;;;;;;7.38;53.39;103221.78;4914375;29;20062;-79
2021/04/15 08:20:05;;;;;;;1.27;0.50;;;;;;;7.52;52.67;103221.59;4918766;29;20035;-82
2021/04/15 08:22:54;;;;;;;0.60;0.50;;;;;;;7.47;51.79;103199.66;4915733;29;20028;-79
2021/04/15 08:25:57;;;;;;;2.72;0.80;;;;;;;7.72;51.43;103212.84;4896611;29;20431;-78
2021/04/15 08:28:37;;;;;;;1.63;0.80;;;;;;;7.76;52.23;103218.81;4913692;29;20021;-79
2021/04/15 08:31:20;;;;;;;1.17;0.50;;;;;;;7.79;52.46;103226.59;4913446;29;20032;-79
2021/04/15 08:33:46;;;;;;;1.23;0.50;;;;;;;7.76;52.58;103213.44;4910395;29;20063;-78
2021/04/15 08:36:28;;;;;;;0.98;0.50;;;;;;;7.80;52.33;103214.06;4914396;29;20040;-78
2021/04/15 08:39:18;;;;;;;1.55;0.60;;;;;;;7.88;52.08;103215.16;4913824;29;20035;-79
2021/04/15 08:42:37;;;;;;;2.28;0.52;;;;;;;7.86;51.22;103214.41;4912751;29;20111;-79
2021/04/15 08:45:48;;;;;;;1.33;0.80;;;;;;;7.91;50.54;103197.94;4857975;29;20033;-79
2021/04/15 08:48:16;;;;;;;0.85;0.50;;;;;;;8.21;51.99;103221.44;4916201;29;20055;-78
2021/04/15 08:50:54;;;;;;;1.35;0.57;;;;;;;8.20;51.08;103222.44;4913670;29;20039;-78
2021/04/15 08:53:53;;;;;;;1.33;0.60;;;;;;;8.12;50.05;103220.38;4896435;29;20123;-79
2021/04/15 08:56:26;;;;;;;2.85;0.90;;;;;;;8.22;51.23;103207.06;4912352;29;20103;-78
2021/04/15 08:59:21;;;;;;;0.73;0.50;;;;;;;8.33;51.52;103220.44;4912591;29;20052;-78
2021/04/15 09:01:50;;;;;;;1.08;0.60;;;;;;;8.23;50.55;103195.34;4899516;29;20336;-79
2021/04/15 09:04:22;;;;;;;1.75;0.50;;;;;;;8.49;50.54;103217.41;4914884;29;20083;-79
2021/04/15 09:07:10;;;;;;;3.97;0.60;;;;;;;8.56;50.42;103209.69;4919111;29;20032;-79
2021/04/15 09:09:48;;;;;;;1.45;0.60;;;;;;;8.51;49.36;103211.91;4918318;29;20038;-79
2021/04/15 09:12:32;;;;;;;1.08;0.50;;;;;;;8.52;48.90;103213.63;4918871;29;20036;-79
2021/04/15 09:14:58;;;;;;;3.42;0.60;;;;;;;8.67;48.62;103212.34;4925338;29;20048;-79
2021/04/15 09:17:42;;;;;;;0.88;0.50;;;;;;;8.70;46.28;103215.63;4920398;29;20101;-79
2021/04/15 09:20:13;;;;;;;1.67;0.60;;;;;;;8.82;48.24;103210.22;4924361;29;20043;-77
2021/04/15 09:23:05;;;;;;;2.47;0.40;;;;;;;8.97;46.75;103202.69;4921579;29;20028;-78
2021/04/15 09:25:58;;;;;;;2.85;0.57;;;;;;;8.97;45.31;103198.16;4920753;29;20180;-79
2021/04/15 09:28:50;;;;;;;0.63;0.50;;;;;;;8.78;44.54;103166.69;4900052;29;20530;-79
2021/04/15 09:31:49;;;;;;;1.85;0.47;;;;;;;9.22;44.58;103199.63;4920340;29;20053;-79
2021/04/15 09:34:53;;;;;;;1.15;0.50;;;;;;;9.01;41.96;103190.72;4907013;29;20059;-78
2021/04/15 09:37:50;;;;;;;1.52;0.50;;;;;;;9.20;43.22;103196.22;4918421;29;20036;-78
2021/04/15 09:40:24;;;;;;;0.65;0.30;;;;;;;9.13;42.28;103178.91;4911877;29;20020;-79
2021/04/15 09:43:00;;;;;;;1.58;0.47;;;;;;;9.21;40.48;103189.88;4903751;29;20062;-78
2021/04/15 09:46:04;;;;;;;0.47;0.30;;;;;;;9.23;40.48;103184.34;4922961;29;20028;-78
2021/04/15 09:48:55;;;;;;;2.17;0.63;;;;;;;9.22;40.96;103186.19;4918682;29;20024;-78
2021/04/15 09:51:41;;;;;;;2.13;0.60;;;;;;;9.10;42.06;103197.97;4906196;29;20054;-78
2021/04/15 09:54:36;;;;;;;1.70;0.40;;;;;;;9.03;41.86;103180.69;4913178;29;20056;-78
2021/04/15 09:57:30;;;;;;;1.13;0.50;;;;;;;9.01;42.24;103153.13;4915161;29;20032;-78
2021/04/15 10:00:14;;;;;;;0.57;0.40;;;;;;;9.33;41.14;103204.06;4915510;29;20028;-78
2021/04/15 10:02:56;;;;;;;3.28;0.65;;;;;;;9.28;43.57;103185.69;4910951;29;20059;-78
2021/04/15 10:05:34;;;;;;;2.13;0.57;;;;;;;8.77;42.34;103188.25;4914049;29;20332;-78
2021/04/15 10:08:29;;;;;;;0.90;0.50;;;;;;;8.52;43.12;103184.09;4917470;29;20127;-78
2021/04/15 10:11:13;;;;;;;1.20;0.60;;;;;;;9.03;42.37;103176.16;4906154;29;20032;-78
2021/04/15 10:13:54;;;;;;;2.17;0.60;;;;;;;9.36;43.25;103185.84;4918146;29;20478;-79
2021/04/15 10:16:46;;;;;;;1.35;0.65;;;;;;;9.34;41.44;103171.72;4900295;29;20040;-78
2021/04/15 10:19:36;;;;;;;1.23;0.60;;;;;;;9.24;41.12;103172.63;4901711;29;20085;-77
2021/04/15 10:22:23;;;;;;;0.98;0.55;;;;;;;9.32;40.43;103181.72;4891524;29;20108;-78
2021/04/15 10:24:54;;;;;;;1.17;0.50;;;;;;;9.41;40.77;103180.94;4911462;29;20024;-79
2021/04/15 10:27:38;;;;;;;2.35;0.60;;;;;;;9.29;40.61;103182.00;4914785;29;20036;-78
2021/04/15 10:30:40;;;;;;;1.83;0.60;;;;;;;9.13;39.93;103182.47;4912061;29;20087;-78
2021/04/15 10:33:32;;;;;;;0.82;0.57;;;;;;;9.37;40.90;103166.06;4912048;29;20032;-78
2021/04/15 10:36:09;;;;;;;1.20;0.50;;;;;;;9.08;40.36;103168.59;4916315;29;20019;-78
2021/04/15 10:39:13;;;;;;;1.63;0.50;;;;;;;8.93;40.68;103162.66;4915099;29;20512;-77
2021/04/15 10:42:00;;;;;;;1.67;0.50;;;;;;;8.73;40.80;103163.50;4910538;29;20092;-78
2021/04/15 10:44:56;;;;;;;1.25;0.60;;;;;;;9.10;40.74;103168.44;4910704;29;20024;-77
2021/04/15 10:47:27;;;;;;;1.13;0.50;;;;;;;9.10;40.87;103144.25;4910529;29;20110;-77
2021/04/15 10:50:22;;;;;;;0.80;0.50;;;;;;;9.34;40.16;103150.22;4893711;29;20739;-77
2021/04/15 10:53:00;;;;;;;1.63;0.38;;;;;;;9.41;38.55;103147.84;4913436;29;20020;-78
2021/04/15 10:55:47;;;;;;;1.25;0.50;;;;;;;9.55;37.67;103143.94;4911207;29;20067;-77
2021/04/15 10:58:36;;;;;;;1.10;0.50;;;;;;;9.52;37.21;103155.81;4909088;29;20146;-77
2021/04/15 11:01:30;;;;;;;1.90;0.43;;;;;;;9.64;38.13;103121.63;4916804;29;20036;-77
2021/04/15 11:03:59;;;;;;;1.85;0.50;;;;;;;9.84;38.21;103150.28;4914812;29;20020;-77
2021/04/15 11:06:52;;;;;;;1.42;0.68;;;;;;;9.74;38.57;103145.88;4897282;29;20439;-77
2021/04/15 11:09:17;;;;;;;1.77;0.50;;;;;;;9.36;38.07;103150.06;4915852;29;20050;-77
2021/04/15 11:11:53;;;;;;;2.58;0.60;;;;;;;9.13;37.05;103139.47;4899282;29;20032;-77
2021/04/15 11:14:19;;;;;;;0.55;0.30;;;;;;;9.23;37.69;103136.00;4900039;29;20127;-77
2021/04/15 11:16:54;;;;;;;1.17;0.40;;;;;;;9.29;36.52;103135.47;4900270;29;20068;-77
2021/04/15 11:19:29;;;;;;;1.13;0.40;;;;;;;9.64;37.66;103140.44;4915774;29;20661;-77
2021/04/15 11:22:15;;;;;;;2.05;0.35;;;;;;;9.71;35.96;103138.91;4898354;29;20050;-78
2021/04/15 11:24:41;;;;;;;1.08;0.30;;;;;;;10.02;36.52;103136.16;4907206;29;20518;-77
2021/04/15 11:27:09;;;;;;;1.08;0.38;;;;;;;10.06;34.52;103138.44;4896218;29;20046;-78
2021/04/15 11:29:47;;;;;;;1.52;0.43;;;;;;;10.11;35.79;103135.34;4894044;29;20384;-78
2021/04/15 11:32:29;;;;;;;1.65;0.43;;;;;;;9.82;35.63;103135.25;4894323;29;20059;-78
2021/04/15 11:35:09;;;;;;;1.17;0.40;;;;;;;9.82;36.18;103127.19;4909289;29;20021;-78
2021/04/15 11:37:40;;;;;;;0.77;0.40;;;;;;;9.65;33.40;103116.09;4894884;29;20375;-78
2021/04/15 11:40:22;;;;;;;0.40;0.25;;;;;;;9.86;34.47;103131.31;4913092;29;20029;-78
2021/04/15 11:42:50;;;;;;;1.25;0.32;;;;;;;9.92;33.82;103135.28;4912537;29;20027;-78
2021/04/15 11:45:36;;;;;;;0.85;0.30;;;;;;;10.05;33.09;103130.50;4913829;29;20044;-78
2021/04/15 11:48:22;;;;;;;3.17;0.47;;;;;;;10.32;33.62;103138.78;4893439;29;20139;-78
2021/04/15 11:50:51;;;;;;;4.15;0.40;;;;;;;10.41;34.04;103128.19;4879241;29;20024;-78
2021/04/15 11:53:37;;;;;;;0.98;0.38;;;;;;;10.62;34.16;103118.09;4896972;29;20031;-78
2021/04/15 11:56:28;;;;;;;0.75;0.35;;;;;;;10.80;33.55;103148.72;4878063;29;20461;-77
2021/04/15 11:59:12;;;;;;;0.70;0.30;;;;;;;10.89;33.72;103124.59;4890479;29;20100;-77
2021/04/15 12:01:37;;;;;;;0.65;0.20;;;;;;;10.62;32.68;103128.03;4899144;29;20060;-77
2021/04/15 12:04:08;;;;;;;0.88;0.30;;;;;;;10.61;33.69;103129.03;4883862;29;20052;-78
2021/04/15 12:06:39;;;;;;;0.60;0.28;;;;;;;10.45;32.98;103111.59;4900026;29;20079;-77
2021/04/15 12:09:07;;;;;;;1.20;0.75;;;;;;;10.50;33.52;103054.66;4895358;29;20088;-77
2021/04/15 12:11:41;;;;;;;0.50;0.25;;;;;;;10.64;33.90;103094.59;4894374;29;21385;-77
2021/04/15 12:14:16;;;;;;;0.55;0.30;;;;;;;10.27;33.54;103113.31;4893989;29;20025;-77
2021/04/15 12:16:44;;;;;;;1.63;0.30;;;;;;;10.14;33.59;103127.00;4896404;29;20443;-77
2021/04/15 12:19:32;;;;;;;0.60;0.30;;;;;;;9.93;35.33;103104.72;4881303;29;20412;-77
2021/04/15 12:22:27;;;;;;;2.42;0.30;;;;;;;9.98;35.13;103106.00;4883124;29;20032;-77
2021/04/15 12:25:16;;;;;;;2.00;0.40;;;;;;;10.55;34.42;103111.59;4895147;29;20039;-77
2021/04/15 12:27:41;;;;;;;1.70;0.40;;;;;;;10.77;34.26;103111.31;4879298;29;20047;-77
2021/04/15 12:30:23;;;;;;;0.70;0.32;;;;;;;10.43;34.98;103099.25;4894294;29;20048;-77
2021/04/15 12:33:06;;;;;;;3.33;0.60;;;;;;;10.60;35.35;103109.34;4894541;29;20083;-77